Time;durP1;ratioP1;P1;durP2;ratioP2;P2;SDS_P1;SDS_P2;PMS_P1;PMS_P2;Temp;Humidity;BMP_temperature;BMP_pressure;BME280_temperature;BME280_humidity;BME280_pressure;Samples;Min_cycle;Max_cycle;Signal;HPM_P1;HPM_P2
2022/01/22 00:00:30;;;;;;;41.77;4.57;;;6.50;99.90;;;;;;5041853;28;20040;-80
2022/01/22 00:02:56;;;;;;;32.00;4.77;;;6.50;99.90;;;;;;5038112;28;20041;-83
2022/01/22 00:05:22;;;;;;;38.47;4.47;;;6.50;99.90;;;;;;5045803;28;20052;-81
2022/01/22 00:07:50;;;;;;;34.53;4.43;;;6.50;99.90;;;;;;5041318;28;20068;-80
2022/01/22 00:10:19;;;;;;;29.70;4.37;;;6.50;99.90;;;;;;5036647;28;20072;-80
2022/01/22 00:15:17;;;;;;;33.40;3.67;;;6.50;99.90;;;;;;5036241;28;20510;-80
2022/01/22 00:17:44;;;;;;;30.23;4.30;;;6.50;99.90;;;;;;5043262;28;20097;-80
2022/01/22 00:20:11;;;;;;;22.13;3.90;;;6.50;99.90;;;;;;5062487;28;20667;-79
2022/01/22 00:22:37;;;;;;;30.53;3.73;;;6.50;99.90;;;;;;5039379;28;20037;-80
2022/01/22 00:25:09;;;;;;;15.87;3.43;;;6.50;99.90;;;;;;5037793;28;20479;-79
2022/01/22 00:27:36;;;;;;;18.20;3.10;;;6.50;99.90;;;;;;5053540;28;20975;-79
2022/01/22 00:30:03;;;;;;;30.30;4.10;;;6.50;99.90;;;;;;5023234;28;20045;-80
2022/01/22 00:32:29;;;;;;;26.03;4.37;;;6.50;99.90;;;;;;5036920;28;20037;-81
2022/01/22 00:34:55;;;;;;;27.27;4.13;;;6.50;99.90;;;;;;5022132;28;20102;-80
2022/01/22 00:37:21;;;;;;;18.03;3.63;;;6.50;99.90;;;;;;5041355;28;20075;-80
2022/01/22 00:39:46;;;;;;;19.00;4.30;;;6.50;99.90;;;;;;5027835;28;20044;-80
2022/01/22 00:42:15;;;;;;;23.60;3.70;;;6.50;99.90;;;;;;5044423;28;20040;-80
2022/01/22 00:44:42;;;;;;;23.07;3.77;;;6.50;99.90;;;;;;5043971;28;20048;-80
2022/01/22 00:47:08;;;;;;;20.73;4.47;;;6.60;99.90;;;;;;5038743;28;20053;-81
2022/01/22 00:49:34;;;;;;;20.33;4.23;;;6.60;99.90;;;;;;5054963;28;20494;-80
2022/01/22 00:52:00;;;;;;;22.87;3.80;;;6.50;99.90;;;;;;5039049;28;20068;-80
2022/01/22 00:54:26;;;;;;;29.50;5.07;;;6.60;99.90;;;;;;5026250;28;20072;-81
2022/01/22 00:56:52;;;;;;;23.57;4.27;;;6.60;99.90;;;;;;5039921;28;20128;-81
2022/01/22 00:59:19;;;;;;;22.93;4.73;;;6.60;99.90;;;;;;5032602;28;20041;-80
2022/01/22 01:01:45;;;;;;;24.97;5.17;;;6.60;99.90;;;;;;5040442;28;20040;-80
2022/01/22 01:04:11;;;;;;;24.80;4.50;;;6.60;99.90;;;;;;5034993;28;20041;-80
2022/01/22 01:06:38;;;;;;;24.57;4.03;;;6.60;99.90;;;;;;5042400;28;20068;-81
2022/01/22 01:09:06;;;;;;;28.67;4.50;;;6.60;99.90;;;;;;5040045;28;20103;-80
2022/01/22 01:11:35;;;;;;;27.10;4.37;;;6.60;99.90;;;;;;5035345;28;20379;-80
2022/01/22 01:14:03;;;;;;;23.47;4.30;;;6.60;99.90;;;;;;5040779;28;20040;-80
2022/01/22 01:35:14;;;;;;;17.42;3.08;;;6.70;99.90;;;;;;5047026;28;20525;-81
2022/01/22 01:37:39;;;;;;;16.30;2.90;;;6.70;99.90;;;;;;5036167;28;20138;-80
2022/01/22 01:40:08;;;;;;;20.50;3.57;;;6.70;99.90;;;;;;5040079;28;20076;-80
2022/01/22 01:42:45;;;;;;;15.03;2.93;;;6.70;99.90;;;;;;5044990;28;20040;-80
2022/01/22 01:45:11;;;;;;;14.13;2.67;;;6.70;99.90;;;;;;5036785;28;20045;-80
2022/01/22 01:47:54;;;;;;;17.60;3.00;;;6.80;99.90;;;;;;5050295;28;20406;-79
2022/01/22 01:50:20;;;;;;;19.70;3.53;;;6.80;99.90;;;;;;5035511;28;20073;-77
2022/01/22 01:52:52;;;;;;;19.23;3.30;;;6.80;99.90;;;;;;5027717;28;20098;-77
2022/01/22 01:55:34;;;;;;;14.17;3.23;;;6.70;99.90;;;;;;5046349;28;20131;-78
2022/01/22 01:58:04;;;;;;;19.40;3.43;;;6.80;99.90;;;;;;5040227;28;20045;-77
2022/01/22 02:00:31;;;;;;;20.87;3.33;;;6.80;99.90;;;;;;5043479;28;20063;-77
2022/01/22 02:03:01;;;;;;;13.37;2.90;;;6.80;99.90;;;;;;5036845;28;20107;-78
2022/01/22 02:05:36;;;;;;;17.50;3.30;;;6.80;99.90;;;;;;5043560;28;20036;-78
2022/01/22 02:08:02;;;;;;;13.63;2.90;;;6.80;99.90;;;;;;5030580;28;20048;-78
2022/01/22 02:10:46;;;;;;;22.10;3.50;;;6.80;99.90;;;;;;5026315;28;20048;-78
2022/01/22 02:24:22;;;;;;;12.17;3.00;;;6.80;99.90;;;;;;5045051;28;20041;-78
2022/01/22 02:26:50;;;;;;;19.97;3.50;;;6.80;99.90;;;;;;5036155;28;20116;-76
2022/01/22 02:29:22;;;;;;;15.93;3.40;;;6.90;99.90;;;;;;5042218;28;20044;-77
2022/01/22 02:35:12;;;;;;;17.03;2.70;;;6.90;99.90;;;;;;5037590;28;20049;-76
2022/01/22 02:37:46;;;;;;;22.23;3.37;;;6.90;99.90;;;;;;5042618;28;20555;-78
2022/01/22 02:40:19;;;;;;;18.40;3.15;;;6.90;99.90;;;;;;5035519;28;20136;-77
2022/01/22 02:42:46;;;;;;;13.30;2.70;;;6.90;99.90;;;;;;5029015;28;20036;-79
2022/01/22 02:45:17;;;;;;;9.87;2.60;;;6.90;99.90;;;;;;5040123;28;20283;-77
2022/01/22 02:47:43;;;;;;;14.80;2.83;;;6.80;99.90;;;;;;5063125;28;20119;-78
2022/01/22 02:50:09;;;;;;;15.73;3.10;;;6.90;99.90;;;;;;5044594;28;20476;-76
2022/01/22 02:52:35;;;;;;;14.67;2.83;;;6.90;99.90;;;;;;5026703;28;20063;-78
2022/01/22 02:55:03;;;;;;;15.90;2.80;;;6.90;99.90;;;;;;5060583;28;20044;-78
2022/01/22 02:57:32;;;;;;;12.63;2.30;;;6.80;99.90;;;;;;5037692;28;20139;-77
2022/01/22 03:00:00;;;;;;;15.07;2.60;;;6.80;99.90;;;;;;5038445;28;20045;-77
2022/01/22 03:02:26;;;;;;;11.30;2.87;;;6.90;99.90;;;;;;5041692;28;20051;-77
2022/01/22 03:04:54;;;;;;;7.67;2.37;;;6.80;99.90;;;;;;5042072;28;20033;-79
2022/01/22 03:07:20;;;;;;;9.53;2.83;;;6.80;99.90;;;;;;5041791;28;20493;-75
2022/01/22 03:09:48;;;;;;;11.03;2.90;;;6.80;99.90;;;;;;5039434;28;20079;-78
2022/01/22 03:15:32;;;;;;;8.60;2.17;;;6.90;99.90;;;;;;5041357;28;20045;-78
2022/01/22 03:18:10;;;;;;;10.63;2.67;;;6.90;99.90;;;;;;5039470;28;20135;-78
2022/01/22 03:20:49;;;;;;;12.20;2.27;;;6.90;99.90;;;;;;5046549;28;20044;-77
2022/01/22 03:28:57;;;;;;;14.17;2.13;;;6.90;99.90;;;;;;5041190;28;20124;-78
2022/01/22 03:31:24;;;;;;;8.77;1.90;;;6.90;99.90;;;;;;5035920;28;20048;-77
2022/01/22 03:33:50;;;;;;;8.07;2.03;;;6.90;99.90;;;;;;5028322;28;20037;-77
2022/01/22 03:36:16;;;;;;;11.47;2.50;;;6.90;99.90;;;;;;5038952;28;20053;-77
2022/01/22 03:38:42;;;;;;;11.57;2.20;;;6.90;99.90;;;;;;5035323;28;20036;-77
2022/01/22 03:41:08;;;;;;;9.27;2.27;;;6.80;99.90;;;;;;5038488;28;20045;-78
2022/01/22 03:43:34;;;;;;;9.93;1.97;;;6.80;99.90;;;;;;5028858;28;20032;-78
2022/01/22 03:46:02;;;;;;;10.97;2.50;;;6.80;99.90;;;;;;5040160;28;20047;-78
2022/01/22 03:48:28;;;;;;;10.50;2.13;;;6.80;99.90;;;;;;5041624;28;20051;-77
2022/01/22 03:50:54;;;;;;;14.40;2.30;;;6.80;99.90;;;;;;5031597;28;20426;-75
2022/01/22 03:53:20;;;;;;;13.33;2.63;;;6.80;99.90;;;;;;5040229;28;20047;-77
2022/01/22 03:58:31;;;;;;;10.98;2.13;;;6.80;99.90;;;;;;5055924;28;20624;-78
2022/01/22 04:04:19;;;;;;;13.20;2.33;;;6.80;99.90;;;;;;5035817;28;20060;-77
2022/01/22 04:07:18;;;;;;;9.27;2.13;;;6.90;99.90;;;;;;5020918;28;20130;-78
2022/01/22 04:09:36;;;;;;;11.13;2.20;;;6.80;99.90;;;;;;5054736;28;20053;-77
2022/01/22 04:12:03;;;;;;;6.63;1.80;;;6.80;99.90;;;;;;5035681;28;20626;-76
2022/01/22 04:14:33;;;;;;;10.57;2.10;;;6.80;99.90;;;;;;5036123;28;20111;-76
2022/01/22 04:24:55;;;;;;;11.88;2.30;;;6.80;99.90;;;;;;5036081;28;20075;-78
2022/01/22 04:27:27;;;;;;;9.57;2.20;;;6.80;99.90;;;;;;5040691;28;20049;-77
2022/01/22 04:29:57;;;;;;;7.37;1.93;;;6.80;99.90;;;;;;5034945;28;20033;-78
2022/01/22 04:32:24;;;;;;;10.87;2.23;;;6.80;99.90;;;;;;5040805;28;20045;-78
2022/01/22 04:34:50;;;;;;;7.73;2.10;;;6.80;99.90;;;;;;5030831;28;20051;-78
2022/01/22 04:37:20;;;;;;;8.40;1.93;;;6.80;99.90;;;;;;5039997;28;20040;-77
2022/01/22 04:39:47;;;;;;;9.77;2.40;;;6.80;99.90;;;;;;5035946;28;20048;-76
2022/01/22 04:42:13;;;;;;;10.83;2.00;;;6.80;99.90;;;;;;5043009;28;20044;-78
2022/01/22 04:44:49;;;;;;;10.67;2.20;;;6.80;99.90;;;;;;5021323;28;20049;-79
2022/01/22 04:47:45;;;;;;;9.03;2.00;;;6.80;99.90;;;;;;5022407;28;20071;-79
2022/01/22 04:55:28;;;;;;;11.17;1.93;;;6.70;99.90;;;;;;5041230;28;20056;-77
2022/01/22 04:57:54;;;;;;;9.53;1.70;;;6.70;99.90;;;;;;5044800;28;20056;-78
2022/01/22 05:00:20;;;;;;;9.07;1.83;;;6.80;99.90;;;;;;5059599;28;20044;-78
2022/01/22 05:03:05;;;;;;;6.60;1.63;;;6.80;99.90;;;;;;5050341;28;20043;-77
2022/01/22 05:05:58;;;;;;;11.00;1.70;;;6.70;99.90;;;;;;5034668;28;20068;-78
2022/01/22 05:08:44;;;;;;;6.93;1.73;;;6.70;99.90;;;;;;5050972;28;20064;-78
2022/01/22 05:11:12;;;;;;;9.67;1.67;;;6.80;99.90;;;;;;5026068;28;20041;-77
2022/01/22 05:13:40;;;;;;;5.77;2.07;;;6.70;99.90;;;;;;5023953;28;20431;-77
2022/01/22 05:16:09;;;;;;;10.40;2.07;;;6.80;99.90;;;;;;5039916;28;20041;-78
2022/01/22 05:18:43;;;;;;;11.00;2.27;;;6.80;99.90;;;;;;5043192;28;20037;-78
2022/01/22 05:21:14;;;;;;;6.15;2.28;;;6.80;99.90;;;;;;5041263;28;20052;-77
2022/01/22 05:23:42;;;;;;;10.63;2.20;;;6.70;99.90;;;;;;5039290;28;20037;-78
2022/01/22 05:26:23;;;;;;;8.53;2.10;;;6.80;99.90;;;;;;5040508;28;20041;-78
2022/01/22 05:37:28;;;;;;;7.43;1.87;;;6.80;99.90;;;;;;5044526;28;20127;-78
2022/01/22 05:39:54;;;;;;;8.73;2.50;;;6.70;99.90;;;;;;5039624;28;20107;-78
2022/01/22 05:42:19;;;;;;;11.10;2.23;;;6.80;99.90;;;;;;5024861;28;20067;-77
2022/01/22 05:44:45;;;;;;;11.97;2.47;;;6.80;99.90;;;;;;5024259;28;20072;-77
2022/01/22 05:47:12;;;;;;;11.37;2.30;;;6.80;99.90;;;;;;5021298;28;20044;-75
2022/01/22 05:49:42;;;;;;;11.40;2.10;;;6.80;99.90;;;;;;5026336;28;20087;-78
2022/01/22 05:52:11;;;;;;;12.87;2.07;;;6.70;99.90;;;;;;5040181;28;20056;-77
2022/01/22 05:55:09;;;;;;;12.63;2.47;;;6.70;99.90;;;;;;5037764;28;20663;-78
2022/01/22 06:00:30;;;;;;;10.77;2.03;;;6.80;99.90;;;;;;5042884;28;20040;-78
2022/01/22 06:03:07;;;;;;;13.43;2.00;;;6.80;99.90;;;;;;5046716;28;20091;-76
2022/01/22 06:05:33;;;;;;;11.93;1.90;;;6.80;99.90;;;;;;5021337;28;20072;-77
2022/01/22 06:07:59;;;;;;;12.10;2.07;;;6.80;99.90;;;;;;5046616;28;20139;-78
2022/01/22 06:10:29;;;;;;;12.90;2.10;;;6.80;99.90;;;;;;5029600;28;20130;-77
2022/01/22 06:13:10;;;;;;;11.10;2.23;;;6.70;99.90;;;;;;5043604;28;20049;-78
2022/01/22 06:15:37;;;;;;;7.70;1.77;;;6.70;99.90;;;;;;5030779;28;20045;-77
2022/01/22 06:18:29;;;;;;;7.73;1.87;;;6.70;99.90;;;;;;5039156;28;20050;-78
2022/01/22 06:20:55;;;;;;;9.77;2.13;;;6.70;99.90;;;;;;5037312;28;20063;-78
2022/01/22 06:23:21;;;;;;;9.73;2.40;;;6.70;99.90;;;;;;5039992;28;20036;-78
2022/01/22 06:25:49;;;;;;;7.03;1.70;;;6.80;99.90;;;;;;5027970;28;20049;-78
2022/01/22 06:28:15;;;;;;;12.97;1.97;;;6.80;99.90;;;;;;5035533;28;20041;-78
2022/01/22 06:30:44;;;;;;;10.23;2.37;;;6.80;99.90;;;;;;5035490;28;20036;-78
2022/01/22 06:33:11;;;;;;;11.93;2.20;;;6.70;99.90;;;;;;5042703;28;20547;-77
2022/01/22 06:35:36;;;;;;;12.57;2.47;;;6.80;99.90;;;;;;5025868;28;20037;-77
2022/01/22 06:38:04;;;;;;;12.33;2.47;;;6.80;99.90;;;;;;5034548;28;20076;-77
2022/01/22 06:44:19;;;;;;;16.00;2.50;;;6.70;99.90;;;;;;5066070;28;20117;-78
2022/01/22 06:46:52;;;;;;;10.55;2.38;;;6.70;99.90;;;;;;5041213;28;20045;-77
2022/01/22 06:49:37;;;;;;;12.70;2.57;;;6.70;99.90;;;;;;5061329;28;20059;-76
2022/01/22 06:52:29;;;;;;;10.20;2.70;;;6.70;99.90;;;;;;5041607;28;20544;-78
2022/01/22 06:55:00;;;;;;;10.53;2.43;;;6.70;99.90;;;;;;5038657;28;20452;-78
2022/01/22 06:57:28;;;;;;;12.07;2.53;;;6.70;99.90;;;;;;5033460;28;20041;-78
2022/01/22 06:59:53;;;;;;;8.97;2.30;;;6.70;99.90;;;;;;5022597;28;20509;-77
2022/01/22 07:02:20;;;;;;;11.43;2.30;;;6.70;99.90;;;;;;5047167;28;20128;-77
2022/01/22 07:04:46;;;;;;;12.97;2.63;;;6.70;99.90;;;;;;5036516;28;20525;-76
2022/01/22 07:07:29;;;;;;;14.87;2.50;;;6.70;99.90;;;;;;5042456;28;20052;-79
2022/01/22 07:09:55;;;;;;;16.33;2.30;;;6.70;99.90;;;;;;5041609;28;20040;-78
2022/01/22 07:12:21;;;;;;;10.30;2.20;;;6.80;99.90;;;;;;5022796;28;20041;-78
2022/01/22 07:14:49;;;;;;;9.60;2.30;;;6.80;99.90;;;;;;5044823;28;20062;-78
2022/01/22 07:17:17;;;;;;;13.20;2.20;;;6.80;99.90;;;;;;5033538;28;20052;-78
2022/01/22 07:19:47;;;;;;;10.77;2.27;;;6.70;99.90;;;;;;5038026;28;20043;-78
2022/01/22 07:25:00;;;;;;;6.45;2.10;;;6.80;99.90;;;;;;5042896;28;20037;-78
2022/01/22 07:27:26;;;;;;;12.80;2.33;;;6.80;99.90;;;;;;5041866;28;20055;-77
2022/01/22 07:29:53;;;;;;;5.73;2.37;;;6.80;99.90;;;;;;5034593;28;20059;-77
2022/01/22 07:32:29;;;;;;;8.17;2.30;;;6.70;99.90;;;;;;5041808;28;20095;-79
2022/01/22 07:34:55;;;;;;;7.43;2.30;;;6.70;99.90;;;;;;5036360;28;20495;-78
2022/01/22 07:37:22;;;;;;;7.43;2.40;;;6.70;99.90;;;;;;5040582;28;20049;-78
2022/01/22 07:39:49;;;;;;;8.40;2.47;;;6.70;99.90;;;;;;5025132;28;20080;-78
2022/01/22 07:42:34;;;;;;;9.53;2.77;;;6.70;99.90;;;;;;5045516;28;20052;-79
2022/01/22 07:45:20;;;;;;;8.90;2.50;;;6.70;99.90;;;;;;5046708;28;20060;-76
2022/01/22 07:47:48;;;;;;;8.80;2.60;;;6.70;99.90;;;;;;5036362;28;20128;-78
2022/01/22 07:50:27;;;;;;;10.20;2.40;;;6.70;99.90;;;;;;5040067;23;20058;-81
2022/01/22 07:52:53;;;;;;;10.07;2.37;;;6.70;99.90;;;;;;4999632;28;20065;-82
2022/01/22 07:55:21;;;;;;;9.37;2.00;;;6.70;99.90;;;;;;5004779;28;20057;-81
2022/01/22 07:57:48;;;;;;;7.47;2.40;;;6.70;99.90;;;;;;5033861;28;20131;-81
2022/01/22 08:00:16;;;;;;;6.37;2.17;;;6.70;99.90;;;;;;5015041;28;20045;-81
2022/01/22 08:02:46;;;;;;;9.30;2.20;;;6.70;99.90;;;;;;4980574;28;20049;-82
2022/01/22 08:05:37;;;;;;;5.07;2.20;;;6.70;99.90;;;;;;4982766;28;20057;-82
2022/01/22 08:08:22;;;;;;;8.13;1.90;;;6.70;99.90;;;;;;5008081;28;20053;-81
2022/01/22 08:11:06;;;;;;;2.95;1.58;;;6.70;99.90;;;;;;4992134;28;20052;-82
2022/01/22 08:13:32;;;;;;;6.20;1.53;;;6.70;99.90;;;;;;4979026;28;20496;-84
2022/01/22 08:15:57;;;;;;;6.57;1.63;;;6.70;99.90;;;;;;4985491;28;20052;-84
2022/01/22 08:18:25;;;;;;;4.37;1.40;;;6.70;99.90;;;;;;4993906;28;20061;-84
2022/01/22 08:20:51;;;;;;;6.87;1.80;;;6.70;99.90;;;;;;4967375;28;20458;-83
2022/01/22 08:23:37;;;;;;;7.27;1.90;;;6.70;99.90;;;;;;4993849;28;20049;-84
2022/01/22 08:26:22;;;;;;;3.60;1.70;;;6.70;99.90;;;;;;5007126;28;20045;-84
2022/01/22 08:29:04;;;;;;;6.60;1.80;;;6.80;99.90;;;;;;4970396;28;20037;-84
2022/01/22 08:36:49;;;;;;;6.57;1.67;;;6.80;99.90;;;;;;4983467;28;20044;-84
2022/01/22 08:39:18;;;;;;;4.17;1.40;;;6.80;99.90;;;;;;4996697;28;20048;-83
2022/01/22 08:41:45;;;;;;;5.07;1.80;;;6.80;99.90;;;;;;4986606;28;20077;-84
2022/01/22 08:44:12;;;;;;;7.07;1.90;;;6.90;99.90;;;;;;4990822;28;20046;-84
2022/01/22 08:46:39;;;;;;;3.67;1.53;;;6.90;99.90;;;;;;4977327;28;20042;-84
2022/01/22 08:49:08;;;;;;;8.53;1.80;;;7.00;99.90;;;;;;4971878;28;20407;-84
2022/01/22 08:51:42;;;;;;;6.20;1.60;;;7.10;99.90;;;;;;4994266;28;20069;-84
2022/01/22 08:54:10;;;;;;;6.17;1.83;;;7.10;99.90;;;;;;5007779;28;20073;-84
2022/01/22 08:56:39;;;;;;;7.73;1.37;;;7.10;99.90;;;;;;4992767;28;20053;-84
2022/01/22 08:59:05;;;;;;;4.57;1.40;;;7.00;99.90;;;;;;5003088;28;20042;-84
2022/01/22 09:01:37;;;;;;;7.67;1.73;;;7.00;99.90;;;;;;4991730;28;20125;-83
2022/01/22 09:04:12;;;;;;;6.60;1.60;;;7.00;99.90;;;;;;4987173;28;20399;-83
2022/01/22 09:07:01;;;;;;;8.80;1.80;;;7.00;99.90;;;;;;4966556;28;20065;-82
2022/01/22 09:10:06;;;;;;;6.72;1.40;;;7.00;99.90;;;;;;4979222;28;20517;-82
2022/01/22 09:12:39;;;;;;;5.07;1.40;;;7.00;99.90;;;;;;5006740;28;20046;-82
2022/01/22 09:15:31;;;;;;;7.63;1.77;;;7.00;99.90;;;;;;4983446;28;20678;-82
2022/01/22 09:17:57;;;;;;;8.10;1.33;;;6.90;99.90;;;;;;4985949;28;20046;-82
2022/01/22 09:23:06;;;;;;;7.27;1.47;;;7.00;99.90;;;;;;4978986;28;20046;-82
2022/01/22 09:25:32;;;;;;;7.93;1.90;;;7.00;99.90;;;;;;4974938;28;20488;-82
2022/01/22 09:27:58;;;;;;;10.00;2.00;;;7.00;99.90;;;;;;4977144;28;20418;-82
2022/01/22 09:30:25;;;;;;;7.57;1.90;;;7.00;99.90;;;;;;4982987;28;20514;-81
2022/01/22 09:32:52;;;;;;;9.90;2.00;;;6.90;99.90;;;;;;4989614;28;20038;-82
2022/01/22 09:35:38;;;;;;;5.80;2.13;;;7.00;99.90;;;;;;4971252;28;20420;-83
2022/01/22 09:38:27;;;;;;;12.90;2.67;;;7.00;99.90;;;;;;4985395;28;20054;-82
2022/01/22 09:41:14;;;;;;;10.83;2.67;;;6.90;99.90;;;;;;4998825;28;20048;-82
2022/01/22 09:43:53;;;;;;;13.50;3.30;;;7.00;99.90;;;;;;5005673;28;20041;-82
2022/01/22 09:46:29;;;;;;;13.37;3.03;;;7.00;99.90;;;;;;4987652;28;20045;-82
2022/01/22 09:49:24;;;;;;;12.50;2.90;;;7.00;99.90;;;;;;4935728;28;20051;-82
2022/01/22 09:52:14;;;;;;;17.83;4.20;;;7.00;99.90;;;;;;4996247;28;20037;-82
2022/01/22 09:54:54;;;;;;;23.50;4.90;;;7.00;99.90;;;;;;4972736;28;20498;-83
2022/01/22 09:57:54;;;;;;;15.47;3.63;;;7.00;99.90;;;;;;4998315;28;20133;-82
2022/01/22 10:00:34;;;;;;;13.27;4.10;;;7.00;99.90;;;;;;5005597;28;20073;-82
2022/01/22 10:03:16;;;;;;;13.97;4.50;;;7.00;99.90;;;;;;4994143;28;20046;-82
2022/01/22 10:05:45;;;;;;;11.20;3.90;;;7.10;99.90;;;;;;4987088;28;20046;-82
2022/01/22 10:08:32;;;;;;;13.03;4.20;;;7.10;99.90;;;;;;4994409;28;20080;-82
2022/01/22 10:11:21;;;;;;;16.33;4.00;;;7.20;99.90;;;;;;4975390;28;20050;-83
2022/01/22 10:14:22;;;;;;;17.30;3.60;;;7.10;99.90;;;;;;4987349;28;20078;-83
2022/01/22 10:16:50;;;;;;;10.27;3.40;;;7.10;99.90;;;;;;4987240;28;20531;-83
2022/01/22 10:19:18;;;;;;;12.10;3.20;;;7.20;99.90;;;;;;4971272;28;20046;-82
2022/01/22 10:21:46;;;;;;;11.53;3.10;;;7.20;99.90;;;;;;4976923;28;20046;-82
2022/01/22 10:24:32;;;;;;;13.57;3.67;;;7.20;99.90;;;;;;4989677;28;20050;-83
2022/01/22 10:27:22;;;;;;;14.67;3.63;;;7.20;99.90;;;;;;4976071;28;20411;-83
2022/01/22 10:29:52;;;;;;;12.57;3.47;;;7.20;99.90;;;;;;5020734;28;20046;-83
2022/01/22 10:32:19;;;;;;;18.10;4.00;;;7.20;99.90;;;;;;4992662;28;20057;-82
2022/01/22 10:35:07;;;;;;;14.00;3.67;;;7.30;99.90;;;;;;4991790;28;20053;-82
2022/01/22 10:37:54;;;;;;;13.37;3.67;;;7.30;99.90;;;;;;4969215;28;20161;-82
2022/01/22 10:40:27;;;;;;;17.67;3.53;;;7.30;99.90;;;;;;4992913;28;20042;-82
2022/01/22 10:43:21;;;;;;;17.03;4.00;;;7.30;99.90;;;;;;4976808;28;20128;-82
2022/01/22 10:46:04;;;;;;;18.05;4.00;;;7.30;99.90;;;;;;4986145;28;20065;-83
2022/01/22 10:48:30;;;;;;;12.10;3.72;;;7.30;99.90;;;;;;4963547;28;20142;-82
2022/01/22 10:51:02;;;;;;;13.03;4.13;;;7.30;99.90;;;;;;4992201;28;20140;-82
2022/01/22 10:53:42;;;;;;;17.27;4.20;;;7.40;99.90;;;;;;4995113;28;20427;-82
2022/01/22 10:56:11;;;;;;;15.90;3.70;;;7.40;99.90;;;;;;4972504;28;20049;-81
2022/01/22 10:58:53;;;;;;;14.53;3.80;;;7.40;99.90;;;;;;4986282;28;20060;-82
2022/01/22 11:01:20;;;;;;;19.13;4.53;;;7.50;99.90;;;;;;4996904;28;20062;-82
2022/01/22 11:03:46;;;;;;;12.87;3.90;;;7.50;99.90;;;;;;5009026;28;20099;-82
2022/01/22 11:06:26;;;;;;;15.30;3.80;;;7.50;99.90;;;;;;5002127;28;20046;-82
2022/01/22 11:08:52;;;;;;;11.10;3.57;;;7.60;99.90;;;;;;4994189;28;20084;-82
2022/01/22 11:11:21;;;;;;;14.23;3.33;;;7.60;99.90;;;;;;4994501;28;20152;-82
2022/01/22 11:13:47;;;;;;;17.07;3.30;;;7.60;99.90;;;;;;5002458;28;20040;-83
2022/01/22 11:16:14;;;;;;;14.73;3.23;;;7.60;99.90;;;;;;5008751;28;20042;-82
2022/01/22 11:18:42;;;;;;;13.10;3.37;;;7.60;99.90;;;;;;4993560;28;20561;-82
2022/01/22 11:21:08;;;;;;;14.03;3.10;;;7.60;99.90;;;;;;4984337;28;20085;-81
2022/01/22 11:23:35;;;;;;;12.03;2.70;;;7.50;99.90;;;;;;5012668;28;20034;-82
2022/01/22 11:26:01;;;;;;;21.10;3.80;;;7.50;99.90;;;;;;4990530;28;20099;-81
2022/01/22 11:28:29;;;;;;;20.40;3.63;;;7.50;99.90;;;;;;5006244;28;20052;-82
2022/01/22 11:30:55;;;;;;;16.20;3.13;;;7.40;99.90;;;;;;4988229;28;20149;-82
2022/01/22 11:33:24;;;;;;;17.97;3.80;;;7.40;99.90;;;;;;4993086;28;20042;-81
2022/01/22 11:36:00;;;;;;;13.00;3.00;;;7.40;99.90;;;;;;5010195;28;20053;-82
2022/01/22 11:38:28;;;;;;;16.03;3.10;;;7.50;99.90;;;;;;4985160;28;20042;-82
2022/01/22 11:41:06;;;;;;;15.00;3.20;;;7.50;99.90;;;;;;4995062;28;20046;-82
2022/01/22 11:44:11;;;;;;;18.23;3.40;;;7.50;99.90;;;;;;4981753;28;20760;-82
2022/01/22 11:46:41;;;;;;;17.13;3.50;;;7.50;99.90;;;;;;4996654;28;20038;-82
2022/01/22 11:49:21;;;;;;;17.30;4.07;;;7.50;99.90;;;;;;4973392;28;20488;-82
2022/01/22 11:51:49;;;;;;;15.17;3.63;;;7.60;99.90;;;;;;4975892;28;20047;-82
2022/01/22 11:54:17;;;;;;;13.33;3.20;;;7.50;99.90;;;;;;4992531;28;20520;-83
2022/01/22 11:56:46;;;;;;;18.80;4.27;;;7.60;99.90;;;;;;4970034;28;20042;-82
2022/01/22 11:59:27;;;;;;;22.10;3.77;;;7.60;99.90;;;;;;4987984;28;20496;-82
2022/01/22 12:02:11;;;;;;;19.53;3.70;;;7.60;99.90;;;;;;4971274;28;20109;-82
2022/01/22 12:04:50;;;;;;;20.13;3.53;;;7.60;99.90;;;;;;4987703;28;20152;-82
2022/01/22 12:07:24;;;;;;;16.00;3.80;;;7.60;99.90;;;;;;4988060;28;20740;-83
2022/01/22 12:10:32;;;;;;;19.58;4.35;;;7.50;99.90;;;;;;4988114;28;20057;-82
2022/01/22 12:16:07;;;;;;;20.10;5.63;;;7.50;99.90;;;;;;4992254;28;20054;-82
2022/01/22 12:18:36;;;;;;;17.60;5.50;;;7.50;99.90;;;;;;4990116;28;20049;-81
2022/01/22 12:23:51;;;;;;;23.77;6.83;;;7.50;99.90;;;;;;5006551;28;20078;-83
2022/01/22 12:26:53;;;;;;;23.10;6.35;;;7.50;99.90;;;;;;4982697;28;20091;-82
2022/01/22 12:29:34;;;;;;;22.27;5.93;;;7.50;99.90;;;;;;4966096;28;20053;-82
2022/01/22 12:32:25;;;;;;;21.17;5.97;;;7.50;99.90;;;;;;4986538;28;20038;-82
2022/01/22 12:35:01;;;;;;;19.27;5.83;;;7.50;99.90;;;;;;4992279;28;20515;-82
2022/01/22 12:37:29;;;;;;;18.70;5.40;;;7.50;99.90;;;;;;4968237;28;20137;-82
2022/01/22 12:39:56;;;;;;;22.70;6.07;;;7.50;99.90;;;;;;4992399;28;20092;-81
2022/01/22 12:42:35;;;;;;;25.77;7.20;;;7.50;99.90;;;;;;4970947;28;20050;-82
2022/01/22 12:45:07;;;;;;;17.77;5.93;;;7.50;99.90;;;;;;5001338;28;20046;-83
2022/01/22 12:47:36;;;;;;;17.80;6.20;;;7.50;99.90;;;;;;5008391;28;20439;-82
2022/01/22 12:50:07;;;;;;;21.63;6.20;;;7.50;99.90;;;;;;4969158;28;20041;-81
2022/01/22 12:52:34;;;;;;;18.33;5.80;;;7.50;99.90;;;;;;4991015;28;20089;-81
2022/01/22 12:55:13;;;;;;;18.93;6.20;;;7.50;99.90;;;;;;4987676;28;20092;-81
2022/01/22 12:57:41;;;;;;;18.00;5.73;;;7.50;99.90;;;;;;5006441;28;20175;-82
2022/01/22 13:00:12;;;;;;;18.30;5.93;;;7.50;99.90;;;;;;4987373;28;20054;-81
2022/01/22 13:02:41;;;;;;;19.97;5.60;;;7.50;99.90;;;;;;4983370;28;20034;-82
2022/01/22 13:05:09;;;;;;;19.57;5.17;;;7.50;99.90;;;;;;4991001;28;20041;-82
2022/01/22 13:07:56;;;;;;;27.87;6.60;;;7.50;99.90;;;;;;4983697;28;20042;-81
2022/01/22 13:10:45;;;;;;;21.97;5.40;;;7.60;99.90;;;;;;4969792;28;20041;-81
2022/01/22 13:13:17;;;;;;;19.07;5.10;;;7.60;99.90;;;;;;4986551;28;20050;-82
2022/01/22 13:15:42;;;;;;;23.97;4.60;;;7.60;99.90;;;;;;5004980;28;20046;-82
2022/01/22 13:18:10;;;;;;;18.87;5.27;;;7.60;99.90;;;;;;4987349;28;20042;-82
2022/01/22 13:20:36;;;;;;;14.17;4.50;;;7.60;99.90;;;;;;4989073;28;20372;-82
2022/01/22 13:23:15;;;;;;;19.90;4.27;;;7.60;99.90;;;;;;4989559;28;20500;-83
2022/01/22 13:25:41;;;;;;;12.03;3.93;;;7.60;99.90;;;;;;4980277;28;20038;-82
2022/01/22 13:28:12;;;;;;;15.47;4.03;;;7.50;99.90;;;;;;4993607;28;20057;-82
2022/01/22 13:30:45;;;;;;;19.17;3.97;;;7.50;99.90;;;;;;4988844;28;20052;-82
2022/01/22 13:33:18;;;;;;;19.70;4.40;;;7.50;99.90;;;;;;4998987;28;20050;-81
2022/01/22 13:48:57;;;;;;;19.47;3.70;;;7.40;99.90;;;;;;5001893;28;20041;-82
2022/01/22 13:51:24;;;;;;;11.80;3.00;;;7.40;99.90;;;;;;5037934;22;20062;-78
2022/01/22 13:53:50;;;;;;;18.27;3.23;;;7.50;99.90;;;;;;4996429;28;20463;-79
2022/01/22 13:56:17;;;;;;;16.67;3.23;;;7.50;99.90;;;;;;5008939;28;20137;-78
2022/01/22 13:58:43;;;;;;;11.53;3.40;;;7.50;99.90;;;;;;4981440;28;20389;-78
2022/01/22 14:01:18;;;;;;;18.80;4.27;;;7.50;99.90;;;;;;4972419;28;20137;-78
2022/01/22 14:03:45;;;;;;;16.30;3.70;;;7.50;99.90;;;;;;4976763;28;20378;-79
2022/01/22 14:06:12;;;;;;;9.97;3.20;;;7.50;99.90;;;;;;4972794;28;20097;-78
2022/01/22 14:08:38;;;;;;;16.87;3.70;;;7.50;99.90;;;;;;4988756;28;20054;-79
2022/01/22 14:11:05;;;;;;;10.20;3.30;;;7.50;99.90;;;;;;4975956;28;20054;-79
2022/01/22 14:13:31;;;;;;;14.13;3.23;;;7.50;99.90;;;;;;4986808;28;20125;-79
2022/01/22 14:16:09;;;;;;;16.40;3.70;;;7.50;99.90;;;;;;4976821;28;20125;-79
2022/01/22 14:18:39;;;;;;;22.83;3.30;;;7.50;99.90;;;;;;4974117;28;20048;-78
2022/01/22 14:21:09;;;;;;;19.63;4.10;;;7.50;99.90;;;;;;4958716;28;20070;-78
2022/01/22 14:23:38;;;;;;;10.93;3.30;;;7.40;99.90;;;;;;4993253;28;20042;-79
2022/01/22 14:26:08;;;;;;;17.73;3.87;;;7.40;99.90;;;;;;4968865;28;20058;-79
2022/01/22 14:28:40;;;;;;;14.27;3.00;;;7.40;99.90;;;;;;5009947;28;20049;-80
2022/01/22 14:31:18;;;;;;;17.27;3.10;;;7.40;99.90;;;;;;4987084;28;20038;-78
2022/01/22 14:33:44;;;;;;;14.70;2.73;;;7.30;99.90;;;;;;4974629;28;20057;-78
2022/01/22 14:36:15;;;;;;;12.90;2.50;;;7.30;99.90;;;;;;4953928;28;20046;-80
2022/01/22 14:39:27;;;;;;;12.13;2.47;;;7.20;99.90;;;;;;4985687;28;20038;-78
2022/01/22 14:44:34;;;;;;;15.80;2.60;;;7.20;99.90;;;;;;4983332;28;20189;-80
2022/01/22 14:47:03;;;;;;;10.40;2.50;;;7.20;99.90;;;;;;4971616;28;20051;-80
2022/01/22 14:49:32;;;;;;;13.50;2.00;;;7.20;99.90;;;;;;4974487;28;20046;-81
2022/01/22 14:51:58;;;;;;;9.67;1.97;;;7.20;99.90;;;;;;4967689;28;20132;-80
2022/01/22 14:54:28;;;;;;;8.13;1.73;;;7.20;99.90;;;;;;4971406;28;20515;-80
2022/01/22 14:56:54;;;;;;;15.17;2.30;;;7.20;99.90;;;;;;4988069;28;20049;-80
2022/01/22 14:59:20;;;;;;;9.73;2.10;;;7.20;99.90;;;;;;4990760;28;20066;-79
2022/01/22 15:01:46;;;;;;;8.40;1.63;;;7.20;99.90;;;;;;4992802;28;20045;-80
2022/01/22 15:04:11;;;;;;;10.63;1.70;;;7.10;99.90;;;;;;4953537;28;20042;-80
2022/01/22 15:06:37;;;;;;;10.93;1.73;;;7.10;99.90;;;;;;4991331;28;20046;-80